This is the latest recevied weather packets stored in our database for station/object KE5KUL-13. If no packets are shown the sender has not sent any weather packets the latest 10 day(s).
| Time | Temp. | Humidity | Pressure | Rain* | Wind** | Luminosity | Snow |
|---|---|---|---|---|---|---|---|
| 1778097919 | 17.78° C | 43% | 1017.7 hPa | 0 mm | - | - | - |
| 1778097319 | 17.22° C | 43% | 1017.5 hPa | 0 mm | - | - | - |
| 1778096719 | 17.78° C | 42% | 1017.4 hPa | 0 mm | - | - | - |
| 1778096118 | 17.22° C | 45% | 1017.7 hPa | 0 mm | - | - | - |
| 1778095519 | 16.11° C | 47% | 1017.7 hPa | 0 mm | - | - | - |
| 1778094919 | 17.78° C | 43% | 1017.8 hPa | 0 mm | - | - | - |
| 1778094318 | 16.67° C | 46% | 1018.2 hPa | 0 mm | - | - | - |
| 1778093718 | 16.11° C | 45% | 1017.9 hPa | 0 mm | - | - | - |
| 1778093119 | 17.22° C | 44% | 1018.3 hPa | 0 mm | - | - | - |
| 1778092518 | 17.22° C | 44% | 1018.3 hPa | 0 mm | - | - | - |
| 1778091918 | 16.11° C | 47% | 1018.2 hPa | 0 mm | - | - | - |
| 1778091383 | 15.56° C | 48% | 1018.3 hPa | 0 mm | - | - | - |
| 1778090718 | 15.56° C | 49% | 1018.5 hPa | 0 mm | - | - | - |
| 1778090118 | 15.56° C | 51% | 1018.6 hPa | 0 mm | - | - | - |
| 1778089518 | 15° C | 49% | 1018.8 hPa | 0 mm | - | - | - |
| 1778088918 | 15° C | 49% | 1018.8 hPa | 0 mm | - | - | - |
| 1778088318 | 13.89° C | 54% | 1018.6 hPa | 0 mm | - | - | - |
| 1778087718 | 13.33° C | 54% | 1018.2 hPa | 0 mm | - | - | - |
| 1778087118 | 13.33° C | 54% | 1018.4 hPa | 0 mm | - | - | - |
| 1778086518 | 12.78° C | 55% | 1018.1 hPa | 0 mm | - | - | - |
| 1778085918 | 12.22° C | 58% | 1018.3 hPa | 0 mm | - | - | - |
| 1778085318 | 11.67° C | 57% | 1018.3 hPa | 0 mm | - | - | - |
| 1778084718 | 11.67° C | 58% | 1018.2 hPa | 0 mm | - | - | - |
| 1778084118 | 11.67° C | 57% | 1018 hPa | 0 mm | - | - | - |
| 1778083940 | 11.67° C | 58% | 1017.8 hPa | 0 mm | - | - | - |
* Rain latest hour (hover to see other rain measurements)
** Current wind speed in m/s (hover to see current wind gust speed)